Latest Weather Observations for South Channel Island

IDV60801

Issued at 3:35 am EDT Sunday 23 November 2014 (issued every 30 minutes, with the page automatically refreshed every 10 minutes)

About weather observations | Map of weather stations | Latest weather observations for VIC | Other Formats
Station Details ID: 086344 Name: SOUTH CHANNEL ISLAND Lat: -38.31 Lon: 144.80 Height: 9.0 m
Data from the previous 72 hours. | See also: Recent months for locations in Victoria
Date/Time
EDT
Temp
°C
App
Temp
°C
Dew
Point
Rel
Hum
%
Delta-T
°C
Wind Press
QNH
hPa
Press
MSL
hPa
Rain
since 9 am
mm
Dir
 
Spd
km/h
Gust
km/h
Spd
kts
Gust
kts
23/03:30am - - - - - SW 22 28 12 15 - - -
23/03:00am - - - - - WSW 19 24 10 13 - - -
23/02:30am - - - - - WSW 19 24 10 13 - - -
23/02:00am - - - - - WSW 30 32 16 17 - - -
23/01:30am - - - - - WSW 26 30 14 16 - - -
23/01:00am - - - - - W 26 28 14 15 - - -
23/12:30am - - - - - W 20 24 11 13 - - -
23/12:00am - - - - - WSW 20 24 11 13 - - -
 
Date/Time
EDT
Temp
°C
App
Temp
°C
Dew
Point
Rel
Hum
%
Delta-T
°C
Wind Press
QNH
hPa
Press
MSL
hPa
Rain
since 9 am
mm
Dir
 
Spd
km/h
Gust
km/h
Spd
kts
Gust
kts
22/11:30pm - - - - - WSW 15 17 8 9 - - -
22/11:00pm - - - - - W 17 22 9 12 - - -
22/10:30pm - - - - - SSW 24 28 13 15 - - -
22/10:00pm - - - - - SSW 26 32 14 17 - - -
22/09:30pm - - - - - SSW 26 32 14 17 - - -
22/09:00pm - - - - - SSW 28 32 15 17 - - -
22/08:30pm - - - - - SW 32 39 17 21 - - -
22/08:00pm - - - - - SSW 26 39 14 21 - - -
22/07:42pm - - - - - SW 35 46 19 25 - - -
22/07:33pm - - - - - WSW 37 56 20 30 - - -
22/07:30pm - - - - - WSW 43 56 23 30 - - -
22/07:28pm - - - - - WSW 43 56 23 30 - - -
22/07:26pm - - - - - NW 32 35 17 19 - - -
22/07:00pm - - - - - NNW 48 54 26 29 - - -
22/06:30pm - - - - - N 43 48 23 26 - - -
22/06:00pm - - - - - N 33 37 18 20 - - -
22/05:30pm - - - - - NNE 30 33 16 18 - - -
22/05:00pm - - - - - NNE 32 35 17 19 - - -
22/04:30pm - - - - - NNE 37 41 20 22 - - -
22/04:00pm - - - - - NNE 43 50 23 27 - - -
22/03:30pm - - - - - N 41 44 22 24 - - -
22/03:00pm - - - - - N 33 39 18 21 - - -
22/02:30pm - - - - - N 26 28 14 15 - - -
22/02:00pm - - - - - N 30 35 16 19 - - -
22/01:30pm - - - - - N 28 33 15 18 - - -
22/01:00pm - - - - - N 30 35 16 19 - - -
22/12:30pm - - - - - N 33 39 18 21 - - -
22/12:10pm - - - - - N 44 50 24 27 - - -
22/12:00pm - - - - - N 26 32 14 17 - - -
22/11:30am - - - - - NNE 22 28 12 15 - - -
22/11:00am - - - - - NNE 24 28 13 15 - - -
22/10:30am - - - - - NNE 26 28 14 15 - - -
22/10:00am - - - - - NE 26 30 14 16 - - -
22/09:30am - - - - - NNE 20 24 11 13 - - -
22/09:00am - - - - - N 20 24 11 13 - - -
22/08:30am - - - - - N 19 20 10 11 - - -
22/08:00am - - - - - N 13 17 7 9 - - -
22/07:30am - - - - - NNE 15 17 8 9 - - -
22/07:00am - - - - - N 13 15 7 8 - - -
22/06:30am - - - - - N 13 15 7 8 - - -
22/06:00am - - - - - NE 19 20 10 11 - - -
22/05:30am - - - - - NE 19 24 10 13 - - -
22/05:00am - - - - - NE 22 26 12 14 - - -
22/04:30am - - - - - ENE 19 20 10 11 - - -
22/04:00am - - - - - NE 19 20 10 11 - - -
22/03:30am - - - - - ENE 19 22 10 12 - - -
22/03:00am - - - - - E 19 20 10 11 - - -
22/02:30am - - - - - ENE 19 20 10 11 - - -
22/02:00am - - - - - NE 11 15 6 8 - - -
22/01:30am - - - - - N 9 11 5 6 - - -
22/01:00am - - - - - NNE 11 13 6 7 - - -
22/12:30am - - - - - ENE 4 7 2 4 - - -
22/12:00am - - - - - SE 17 20 9 11 - - -
 
Date/Time
EDT
Temp
°C
App
Temp
°C
Dew
Point
Rel
Hum
%
Delta-T
°C
Wind Press
QNH
hPa
Press
MSL
hPa
Rain
since 9 am
mm
Dir
 
Spd
km/h
Gust
km/h
Spd
kts
Gust
kts
21/11:30pm - - - - - SSE 19 20 10 11 - - -
21/11:00pm - - - - - SSE 22 26 12 14 - - -
21/10:30pm - - - - - SE 22 24 12 13 - - -
21/10:00pm - - - - - SE 19 22 10 12 - - -
21/09:30pm - - - - - SE 19 22 10 12 - - -
21/09:00pm - - - - - SE 24 28 13 15 - - -
21/08:30pm - - - - - S 28 30 15 16 - - -
21/08:00pm - - - - - S 30 33 16 18 - - -
21/07:30pm - - - - - S 28 32 15 17 - - -
21/07:00pm - - - - - S 28 32 15 17 - - -
21/06:30pm - - - - - S 22 26 12 14 - - -
21/06:00pm - - - - - S 26 30 14 16 - - -
21/05:30pm - - - - - S 22 30 12 16 - - -
21/05:00pm - - - - - S 26 28 14 15 - - -
21/04:30pm - - - - - S 22 26 12 14 - - -
21/04:00pm - - - - - S 22 26 12 14 - - -
21/03:30pm - - - - - SSW 26 30 14 16 - - -
21/03:00pm - - - - - SSW 26 32 14 17 - - -
21/02:30pm - - - - - SSW 24 28 13 15 - - -
21/02:00pm - - - - - SSW 24 28 13 15 - - -
21/01:30pm - - - - - SSW 24 28 13 15 - - -
21/01:00pm - - - - - SSW 17 22 9 12 - - -
21/12:30pm - - - - - SW 17 20 9 11 - - -
21/12:00pm - - - - - SW 15 17 8 9 - - -
21/11:30am - - - - - SW 19 26 10 14 - - -
21/11:00am - - - - - SW 20 28 11 15 - - -
21/10:30am - - - - - SW 30 35 16 19 - - -
21/10:00am - - - - - WSW 22 28 12 15 - - -
21/09:30am - - - - - SW 24 28 13 15 - - -
21/09:00am - - - - - SW 32 39 17 21 - - -
21/08:30am - - - - - WSW 32 35 17 19 - - -
21/08:00am - - - - - SW 35 41 19 22 - - -
21/07:30am - - - - - SW 39 44 21 24 - - -
21/07:00am - - - - - SW 33 39 18 21 - - -
21/06:30am - - - - - SW 33 39 18 21 - - -
21/06:09am - - - - - WSW 37 44 20 24 - - -
21/06:00am - - - - - W 32 37 17 20 - - -
21/05:30am - - - - - W 24 32 13 17 - - -
21/05:00am - - - - - W 30 35 16 19 - - -
21/04:30am - - - - - W 28 33 15 18 - - -
21/04:00am - - - - - SW 30 35 16 19 - - -
21/03:30am - - - - - SW 26 30 14 16 - - -
21/03:00am - - - - - SW 32 35 17 19 - - -
21/02:30am - - - - - SW 26 30 14 16 - - -
21/02:00am - - - - - SSW 24 33 13 18 - - -
21/01:30am - - - - - S 28 35 15 19 - - -
21/01:21am - - - - - S 35 41 19 22 - - -
21/01:00am - - - - - N 17 22 9 12 - - -
21/12:30am - - - - - N 20 26 11 14 - - -
21/12:00am - - - - - N 24 28 13 15 - - -
 
Date/Time
EDT
Temp
°C
App
Temp
°C
Dew
Point
Rel
Hum
%
Delta-T
°C
Wind Press
QNH
hPa
Press
MSL
hPa
Rain
since 9 am
mm
Dir
 
Spd
km/h
Gust
km/h
Spd
kts
Gust
kts
20/11:30pm - - - - - N 26 28 14 15 - - -
20/11:00pm - - - - - N 22 26 12 14 - - -
20/10:30pm - - - - - N 28 30 15 16 - - -
20/10:00pm - - - - - N 28 32 15 17 - - -
20/09:30pm - - - - - NNE 35 37 19 20 - - -
20/09:00pm - - - - - NNE 33 41 18 22 - - -
20/08:30pm - - - - - NE 32 37 17 20 - - -
20/08:00pm - - - - - ENE 28 32 15 17 - - -
20/07:30pm - - - - - ENE 22 26 12 14 - - -
20/07:00pm - - - - - NE 17 19 9 10 - - -
20/06:30pm - - - - - NNE 6 7 3 4 - - -
20/06:00pm - - - - - W 9 11 5 6 - - -
20/05:30pm - - - - - W 11 13 6 7 - - -
20/05:00pm - - - - - W 19 24 10 13 - - -
20/04:30pm - - - - - W 28 32 15 17 - - -
20/04:00pm - - - - - W 41 50 22 27 - - -
20/03:30pm - - - - - W 43 48 23 26 - - -
20/03:08pm - - - - - W 41 61 22 33 - - -
20/03:00pm - - - - - W 35 39 19 21 - - -
20/02:30pm - - - - - W 39 43 21 23 - - -
20/02:00pm - - - - - WNW 33 37 18 20 - - -
20/01:30pm - - - - - W 52 61 28 33 - - -
20/01:19pm - - - - - W 37 61 20 33 - - -
20/01:00pm - - - - - N 30 33 16 18 - - -
20/12:30pm - - - - - N 39 43 21 23 - - -
20/12:00pm - - - - - N 39 44 21 24 - - -
20/11:30am - - - - - N 39 44 21 24 - - -
20/11:00am - - - - - N 39 46 21 25 - - -
20/10:30am - - - - - N 46 52 25 28 - - -
20/10:00am - - - - - N 33 39 18 21 - - -
20/09:30am - - - - - N 37 41 20 22 - - -
20/09:00am - - - - - N 37 41 20 22 - - -
20/08:30am - - - - - N 43 48 23 26 - - -
20/08:00am - - - - - NNE 32 37 17 20 - - -
20/07:30am - - - - - NNE 35 39 19 21 - - -
20/07:00am - - - - - NNE 39 44 21 24 - - -
20/06:30am - - - - - NNE 39 43 21 23 - - -
20/06:00am - - - - - N 35 41 19 22 - - -
20/05:30am - - - - - N 39 46 21 25 - - -
20/05:00am - - - - - N 39 41 21 22 - - -
20/04:30am - - - - - N 20 30 11 16 - - -
20/04:00am - - - - - NE 20 26 11 14 - - -

Other Formats:

Comma delimited format used in spreadsheet applications
http://www.bom.gov.au/fwo/IDV60801/IDV60801.94853.axf

JavaScript Object Notation format (JSON) in row-major order
http://www.bom.gov.au/fwo/IDV60801/IDV60801.94853.json